sensor_id;sensor_type;location;lat;lon;timestamp;temperature;humidity
25250;DHT22;13201;51.148;13.738;2024-01-25T00:01:07;8.50;99.90
25250;DHT22;13201;51.148;13.738;2024-01-25T00:03:33;8.50;99.90
25250;DHT22;13201;51.148;13.738;2024-01-25T00:05:58;8.50;99.90
25250;DHT22;13201;51.148;13.738;2024-01-25T00:08:25;8.60;99.90
25250;DHT22;13201;51.148;13.738;2024-01-25T00:10:51;8.60;99.90
25250;DHT22;13201;51.148;13.738;2024-01-25T00:13:17;8.60;99.90
25250;DHT22;13201;51.148;13.738;2024-01-25T00:15:42;8.50;99.90
25250;DHT22;13201;51.148;13.738;2024-01-25T00:18:08;8.60;99.90
25250;DHT22;13201;51.148;13.738;2024-01-25T00:20:34;8.60;99.90
25250;DHT22;13201;51.148;13.738;2024-01-25T00:23:00;8.50;99.90
25250;DHT22;13201;51.148;13.738;2024-01-25T00:25:25;8.60;99.90
25250;DHT22;13201;51.148;13.738;2024-01-25T00:27:52;8.50;99.90
25250;DHT22;13201;51.148;13.738;2024-01-25T00:30:18;8.60;99.90
25250;DHT22;13201;51.148;13.738;2024-01-25T00:32:43;8.60;99.90
25250;DHT22;13201;51.148;13.738;2024-01-25T00:35:10;8.60;99.90
25250;DHT22;13201;51.148;13.738;2024-01-25T00:37:40;8.60;99.90
25250;DHT22;13201;51.148;13.738;2024-01-25T00:40:06;8.60;99.90
25250;DHT22;13201;51.148;13.738;2024-01-25T00:42:37;8.50;99.90
25250;DHT22;13201;51.148;13.738;2024-01-25T00:45:06;8.60;99.90
25250;DHT22;13201;51.148;13.738;2024-01-25T00:47:32;8.60;99.90
25250;DHT22;13201;51.148;13.738;2024-01-25T00:49:58;8.50;99.90
25250;DHT22;13201;51.148;13.738;2024-01-25T00:52:24;8.60;99.90
25250;DHT22;13201;51.148;13.738;2024-01-25T00:54:50;8.60;99.90
25250;DHT22;13201;51.148;13.738;2024-01-25T00:57:17;8.60;99.90
25250;DHT22;13201;51.148;13.738;2024-01-25T00:59:43;8.50;99.90
25250;DHT22;13201;51.148;13.738;2024-01-25T01:02:12;8.60;99.90
25250;DHT22;13201;51.148;13.738;2024-01-25T01:28:07;8.00;99.90
25250;DHT22;13201;51.148;13.738;2024-01-25T01:30:33;8.10;99.90
25250;DHT22;13201;51.148;13.738;2024-01-25T01:32:58;8.10;99.90
25250;DHT22;13201;51.148;13.738;2024-01-25T01:35:24;8.10;99.90
25250;DHT22;13201;51.148;13.738;2024-01-25T01:37:49;8.30;99.90
25250;DHT22;13201;51.148;13.738;2024-01-25T01:40:15;8.30;99.90
25250;DHT22;13201;51.148;13.738;2024-01-25T01:42:41;8.40;99.90
25250;DHT22;13201;51.148;13.738;2024-01-25T01:45:07;8.40;99.90
25250;DHT22;13201;51.148;13.738;2024-01-25T01:47:34;8.40;99.90
25250;DHT22;13201;51.148;13.738;2024-01-25T01:49:59;8.50;99.90
25250;DHT22;13201;51.148;13.738;2024-01-25T01:52:25;8.50;99.90
25250;DHT22;13201;51.148;13.738;2024-01-25T01:54:51;8.50;99.90
25250;DHT22;13201;51.148;13.738;2024-01-25T01:57:17;8.50;99.90
25250;DHT22;13201;51.148;13.738;2024-01-25T01:59:42;8.50;99.90
25250;DHT22;13201;51.148;13.738;2024-01-25T02:02:09;8.50;99.90
25250;DHT22;13201;51.148;13.738;2024-01-25T02:04:34;8.50;99.90
25250;DHT22;13201;51.148;13.738;2024-01-25T02:07:00;8.40;99.90
25250;DHT22;13201;51.148;13.738;2024-01-25T02:09:26;8.50;99.90
25250;DHT22;13201;51.148;13.738;2024-01-25T02:12:01;8.50;99.90
25250;DHT22;13201;51.148;13.738;2024-01-25T02:14:27;8.50;99.90
25250;DHT22;13201;51.148;13.738;2024-01-25T02:16:53;8.50;99.90
25250;DHT22;13201;51.148;13.738;2024-01-25T02:19:19;8.50;99.90
25250;DHT22;13201;51.148;13.738;2024-01-25T02:21:45;8.50;99.90
25250;DHT22;13201;51.148;13.738;2024-01-25T02:24:10;8.50;99.90
25250;DHT22;13201;51.148;13.738;2024-01-25T02:26:36;8.40;99.90
25250;DHT22;13201;51.148;13.738;2024-01-25T02:29:02;8.50;99.90
25250;DHT22;13201;51.148;13.738;2024-01-25T02:31:30;8.40;99.90
25250;DHT22;13201;51.148;13.738;2024-01-25T02:33:56;8.30;99.90
25250;DHT22;13201;51.148;13.738;2024-01-25T02:36:24;8.40;99.90
25250;DHT22;13201;51.148;13.738;2024-01-25T02:38:50;8.40;99.90
25250;DHT22;13201;51.148;13.738;2024-01-25T02:41:16;8.40;99.90
25250;DHT22;13201;51.148;13.738;2024-01-25T02:43:41;8.40;99.90
25250;DHT22;13201;51.148;13.738;2024-01-25T02:46:08;8.40;99.90
25250;DHT22;13201;51.148;13.738;2024-01-25T02:48:34;8.40;99.90
25250;DHT22;13201;51.148;13.738;2024-01-25T02:51:00;8.40;99.90
25250;DHT22;13201;51.148;13.738;2024-01-25T02:53:26;8.40;99.90
25250;DHT22;13201;51.148;13.738;2024-01-25T02:55:51;8.40;99.90
25250;DHT22;13201;51.148;13.738;2024-01-25T02:58:17;8.40;99.90
25250;DHT22;13201;51.148;13.738;2024-01-25T03:00:42;8.40;99.90
25250;DHT22;13201;51.148;13.738;2024-01-25T03:03:08;8.40;99.90
25250;DHT22;13201;51.148;13.738;2024-01-25T03:05:34;8.40;99.90
25250;DHT22;13201;51.148;13.738;2024-01-25T03:08:00;8.40;99.90
25250;DHT22;13201;51.148;13.738;2024-01-25T03:10:26;8.30;99.90
25250;DHT22;13201;51.148;13.738;2024-01-25T03:12:52;8.30;99.90
25250;DHT22;13201;51.148;13.738;2024-01-25T03:15:17;8.40;99.90
25250;DHT22;13201;51.148;13.738;2024-01-25T03:17:43;8.30;99.90
25250;DHT22;13201;51.148;13.738;2024-01-25T03:20:09;8.30;99.90
25250;DHT22;13201;51.148;13.738;2024-01-25T03:22:35;8.20;99.90
25250;DHT22;13201;51.148;13.738;2024-01-25T03:25:01;8.30;99.90
25250;DHT22;13201;51.148;13.738;2024-01-25T03:27:27;8.40;99.90
25250;DHT22;13201;51.148;13.738;2024-01-25T03:29:52;8.30;99.90
25250;DHT22;13201;51.148;13.738;2024-01-25T03:32:18;8.30;99.90
25250;DHT22;13201;51.148;13.738;2024-01-25T03:34:43;8.40;99.90
25250;DHT22;13201;51.148;13.738;2024-01-25T03:37:10;8.40;99.90
25250;DHT22;13201;51.148;13.738;2024-01-25T03:39:36;8.40;99.90
25250;DHT22;13201;51.148;13.738;2024-01-25T03:42:02;8.50;99.90
25250;DHT22;13201;51.148;13.738;2024-01-25T03:44:27;8.30;99.90
25250;DHT22;13201;51.148;13.738;2024-01-25T03:46:53;8.30;99.90
25250;DHT22;13201;51.148;13.738;2024-01-25T03:49:18;8.30;99.90
25250;DHT22;13201;51.148;13.738;2024-01-25T03:51:45;8.30;99.90
25250;DHT22;13201;51.148;13.738;2024-01-25T03:54:10;8.30;99.90
25250;DHT22;13201;51.148;13.738;2024-01-25T03:56:36;8.30;99.90
25250;DHT22;13201;51.148;13.738;2024-01-25T03:59:01;8.30;99.90
25250;DHT22;13201;51.148;13.738;2024-01-25T04:01:28;8.30;99.90
25250;DHT22;13201;51.148;13.738;2024-01-25T04:03:54;8.20;99.90
25250;DHT22;13201;51.148;13.738;2024-01-25T04:06:20;8.30;99.90
25250;DHT22;13201;51.148;13.738;2024-01-25T04:08:45;8.40;99.90
25250;DHT22;13201;51.148;13.738;2024-01-25T04:11:11;8.30;99.90
25250;DHT22;13201;51.148;13.738;2024-01-25T04:13:40;8.40;99.90
25250;DHT22;13201;51.148;13.738;2024-01-25T04:16:05;8.20;99.90
25250;DHT22;13201;51.148;13.738;2024-01-25T04:18:31;8.20;99.90
25250;DHT22;13201;51.148;13.738;2024-01-25T04:20:57;8.10;99.90
25250;DHT22;13201;51.148;13.738;2024-01-25T04:23:22;8.20;99.90
25250;DHT22;13201;51.148;13.738;2024-01-25T04:25:48;8.10;99.90
25250;DHT22;13201;51.148;13.738;2024-01-25T04:28:14;8.10;99.90
25250;DHT22;13201;51.148;13.738;2024-01-25T04:30:40;8.10;99.90
25250;DHT22;13201;51.148;13.738;2024-01-25T04:33:06;8.10;99.90
25250;DHT22;13201;51.148;13.738;2024-01-25T04:35:31;8.20;99.90
25250;DHT22;13201;51.148;13.738;2024-01-25T04:37:57;8.10;99.90
25250;DHT22;13201;51.148;13.738;2024-01-25T04:40:23;8.00;99.90
25250;DHT22;13201;51.148;13.738;2024-01-25T04:42:48;8.00;99.90
25250;DHT22;13201;51.148;13.738;2024-01-25T04:45:14;8.00;99.90
25250;DHT22;13201;51.148;13.738;2024-01-25T04:47:40;8.00;99.90
25250;DHT22;13201;51.148;13.738;2024-01-25T04:50:05;8.00;99.90
25250;DHT22;13201;51.148;13.738;2024-01-25T04:52:31;8.00;99.90
25250;DHT22;13201;51.148;13.738;2024-01-25T04:54:57;8.00;99.90
25250;DHT22;13201;51.148;13.738;2024-01-25T04:57:22;8.00;99.90
25250;DHT22;13201;51.148;13.738;2024-01-25T04:59:48;8.00;99.90
25250;DHT22;13201;51.148;13.738;2024-01-25T05:02:14;8.00;99.90
25250;DHT22;13201;51.148;13.738;2024-01-25T05:04:40;8.00;99.90
25250;DHT22;13201;51.148;13.738;2024-01-25T05:07:06;8.00;99.90
25250;DHT22;13201;51.148;13.738;2024-01-25T05:09:31;8.00;99.90
25250;DHT22;13201;51.148;13.738;2024-01-25T05:11:57;8.00;99.90
25250;DHT22;13201;51.148;13.738;2024-01-25T05:14:25;8.00;99.90
25250;DHT22;13201;51.148;13.738;2024-01-25T05:16:51;7.90;99.90
25250;DHT22;13201;51.148;13.738;2024-01-25T05:19:16;7.90;99.90
25250;DHT22;13201;51.148;13.738;2024-01-25T05:21:42;7.90;99.90
25250;DHT22;13201;51.148;13.738;2024-01-25T05:24:08;8.00;99.90
25250;DHT22;13201;51.148;13.738;2024-01-25T05:26:35;8.00;99.90
25250;DHT22;13201;51.148;13.738;2024-01-25T05:29:01;8.10;99.90
25250;DHT22;13201;51.148;13.738;2024-01-25T05:31:26;8.00;99.90
25250;DHT22;13201;51.148;13.738;2024-01-25T05:33:52;8.00;99.90
25250;DHT22;13201;51.148;13.738;2024-01-25T05:36:17;8.00;99.90
25250;DHT22;13201;51.148;13.738;2024-01-25T05:38:43;8.00;99.90
25250;DHT22;13201;51.148;13.738;2024-01-25T05:41:09;8.00;99.90
25250;DHT22;13201;51.148;13.738;2024-01-25T05:43:34;8.00;99.90
25250;DHT22;13201;51.148;13.738;2024-01-25T05:46:00;8.00;99.90
25250;DHT22;13201;51.148;13.738;2024-01-25T05:48:26;8.10;99.90
25250;DHT22;13201;51.148;13.738;2024-01-25T05:50:51;8.10;99.90
25250;DHT22;13201;51.148;13.738;2024-01-25T05:53:17;8.00;99.90
25250;DHT22;13201;51.148;13.738;2024-01-25T05:55:45;8.10;99.90
25250;DHT22;13201;51.148;13.738;2024-01-25T05:58:11;8.10;99.90
25250;DHT22;13201;51.148;13.738;2024-01-25T06:00:36;8.10;99.90
25250;DHT22;13201;51.148;13.738;2024-01-25T06:03:02;8.00;99.90
25250;DHT22;13201;51.148;13.738;2024-01-25T06:05:28;8.00;99.90
25250;DHT22;13201;51.148;13.738;2024-01-25T06:07:53;7.90;99.90
25250;DHT22;13201;51.148;13.738;2024-01-25T06:10:19;7.90;99.90
25250;DHT22;13201;51.148;13.738;2024-01-25T06:12:45;8.00;99.90
25250;DHT22;13201;51.148;13.738;2024-01-25T06:15:10;8.00;99.90
25250;DHT22;13201;51.148;13.738;2024-01-25T06:17:36;8.00;99.90
25250;DHT22;13201;51.148;13.738;2024-01-25T06:20:02;7.90;99.90
25250;DHT22;13201;51.148;13.738;2024-01-25T06:22:28;7.90;99.90
25250;DHT22;13201;51.148;13.738;2024-01-25T06:24:53;8.00;99.90
25250;DHT22;13201;51.148;13.738;2024-01-25T06:27:19;7.90;99.90
25250;DHT22;13201;51.148;13.738;2024-01-25T06:29:45;7.90;99.90
25250;DHT22;13201;51.148;13.738;2024-01-25T06:32:10;7.80;99.90
25250;DHT22;13201;51.148;13.738;2024-01-25T06:34:36;7.80;99.90
25250;DHT22;13201;51.148;13.738;2024-01-25T06:37:02;7.80;99.90
25250;DHT22;13201;51.148;13.738;2024-01-25T06:39:27;7.80;99.90
25250;DHT22;13201;51.148;13.738;2024-01-25T06:41:53;7.70;99.90
25250;DHT22;13201;51.148;13.738;2024-01-25T06:44:19;7.80;99.90
25250;DHT22;13201;51.148;13.738;2024-01-25T06:46:45;7.70;99.90
25250;DHT22;13201;51.148;13.738;2024-01-25T06:49:11;7.90;99.90
25250;DHT22;13201;51.148;13.738;2024-01-25T06:51:37;7.80;99.90
25250;DHT22;13201;51.148;13.738;2024-01-25T06:54:02;7.80;99.90
25250;DHT22;13201;51.148;13.738;2024-01-25T06:56:28;7.90;99.90
25250;DHT22;13201;51.148;13.738;2024-01-25T06:58:54;7.80;99.90
25250;DHT22;13201;51.148;13.738;2024-01-25T07:01:21;7.90;99.90
25250;DHT22;13201;51.148;13.738;2024-01-25T07:03:47;7.90;99.90
25250;DHT22;13201;51.148;13.738;2024-01-25T07:06:13;7.90;99.90
25250;DHT22;13201;51.148;13.738;2024-01-25T07:08:38;7.90;99.90
25250;DHT22;13201;51.148;13.738;2024-01-25T07:11:04;7.80;99.90
25250;DHT22;13201;51.148;13.738;2024-01-25T07:13:30;7.80;99.90
25250;DHT22;13201;51.148;13.738;2024-01-25T07:15:55;7.90;99.90
25250;DHT22;13201;51.148;13.738;2024-01-25T07:18:21;7.80;99.90
25250;DHT22;13201;51.148;13.738;2024-01-25T07:20:48;7.80;99.90
25250;DHT22;13201;51.148;13.738;2024-01-25T07:23:13;7.80;99.90
25250;DHT22;13201;51.148;13.738;2024-01-25T07:25:39;7.80;99.90
25250;DHT22;13201;51.148;13.738;2024-01-25T07:28:05;7.70;99.90
25250;DHT22;13201;51.148;13.738;2024-01-25T07:30:31;7.70;99.90
25250;DHT22;13201;51.148;13.738;2024-01-25T07:32:56;7.70;99.90
25250;DHT22;13201;51.148;13.738;2024-01-25T07:35:22;7.80;99.90
25250;DHT22;13201;51.148;13.738;2024-01-25T07:37:48;7.70;99.90
25250;DHT22;13201;51.148;13.738;2024-01-25T07:40:14;7.70;99.90
25250;DHT22;13201;51.148;13.738;2024-01-25T07:42:40;7.70;99.90
25250;DHT22;13201;51.148;13.738;2024-01-25T07:45:07;7.80;99.90
25250;DHT22;13201;51.148;13.738;2024-01-25T07:47:33;7.90;99.90
25250;DHT22;13201;51.148;13.738;2024-01-25T07:49:59;7.90;99.90
25250;DHT22;13201;51.148;13.738;2024-01-25T07:52:24;7.90;99.90
25250;DHT22;13201;51.148;13.738;2024-01-25T07:54:51;7.80;99.90
25250;DHT22;13201;51.148;13.738;2024-01-25T07:57:18;7.80;99.90
25250;DHT22;13201;51.148;13.738;2024-01-25T07:59:44;7.80;99.90
25250;DHT22;13201;51.148;13.738;2024-01-25T08:02:10;7.80;99.90
25250;DHT22;13201;51.148;13.738;2024-01-25T08:04:36;7.80;99.90
25250;DHT22;13201;51.148;13.738;2024-01-25T08:07:02;7.80;99.90
25250;DHT22;13201;51.148;13.738;2024-01-25T08:09:27;7.80;99.90
25250;DHT22;13201;51.148;13.738;2024-01-25T08:11:53;7.90;99.90
25250;DHT22;13201;51.148;13.738;2024-01-25T08:14:19;7.90;99.90
25250;DHT22;13201;51.148;13.738;2024-01-25T08:16:44;7.90;99.90
25250;DHT22;13201;51.148;13.738;2024-01-25T08:19:10;7.80;99.90
25250;DHT22;13201;51.148;13.738;2024-01-25T08:21:36;7.90;99.90
25250;DHT22;13201;51.148;13.738;2024-01-25T08:24:02;7.90;99.90
25250;DHT22;13201;51.148;13.738;2024-01-25T08:26:28;7.90;99.90
25250;DHT22;13201;51.148;13.738;2024-01-25T08:28:54;7.80;99.90
25250;DHT22;13201;51.148;13.738;2024-01-25T08:31:20;7.90;99.90
25250;DHT22;13201;51.148;13.738;2024-01-25T08:33:45;7.90;99.90
25250;DHT22;13201;51.148;13.738;2024-01-25T08:36:16;8.00;99.90
25250;DHT22;13201;51.148;13.738;2024-01-25T08:38:42;8.00;99.90
25250;DHT22;13201;51.148;13.738;2024-01-25T08:41:08;7.90;99.90
25250;DHT22;13201;51.148;13.738;2024-01-25T08:43:34;8.00;99.90
25250;DHT22;13201;51.148;13.738;2024-01-25T08:46:00;8.00;99.90
25250;DHT22;13201;51.148;13.738;2024-01-25T08:48:27;8.00;99.90
25250;DHT22;13201;51.148;13.738;2024-01-25T08:50:53;8.00;99.90
25250;DHT22;13201;51.148;13.738;2024-01-25T08:53:20;7.90;99.90
25250;DHT22;13201;51.148;13.738;2024-01-25T08:55:55;7.90;99.90
25250;DHT22;13201;51.148;13.738;2024-01-25T08:58:21;7.90;99.90
25250;DHT22;13201;51.148;13.738;2024-01-25T09:00:47;8.00;99.90
25250;DHT22;13201;51.148;13.738;2024-01-25T09:03:14;8.00;99.90
25250;DHT22;13201;51.148;13.738;2024-01-25T09:05:40;7.90;99.90
25250;DHT22;13201;51.148;13.738;2024-01-25T09:08:11;8.00;99.90
25250;DHT22;13201;51.148;13.738;2024-01-25T09:10:38;8.10;99.90
25250;DHT22;13201;51.148;13.738;2024-01-25T09:13:04;8.00;99.90
25250;DHT22;13201;51.148;13.738;2024-01-25T09:15:29;8.10;99.90
25250;DHT22;13201;51.148;13.738;2024-01-25T09:17:55;8.10;99.90
25250;DHT22;13201;51.148;13.738;2024-01-25T09:20:21;8.10;99.90
25250;DHT22;13201;51.148;13.738;2024-01-25T09:22:46;8.10;99.90
25250;DHT22;13201;51.148;13.738;2024-01-25T09:25:12;8.20;99.90
25250;DHT22;13201;51.148;13.738;2024-01-25T09:27:38;8.20;99.90
25250;DHT22;13201;51.148;13.738;2024-01-25T09:30:05;8.20;99.90
25250;DHT22;13201;51.148;13.738;2024-01-25T09:32:31;8.10;99.90
25250;DHT22;13201;51.148;13.738;2024-01-25T09:34:56;8.20;99.90
25250;DHT22;13201;51.148;13.738;2024-01-25T09:37:22;8.30;99.90
25250;DHT22;13201;51.148;13.738;2024-01-25T09:39:50;8.20;99.90
25250;DHT22;13201;51.148;13.738;2024-01-25T09:42:17;8.20;99.90
25250;DHT22;13201;51.148;13.738;2024-01-25T09:44:43;8.20;99.90
25250;DHT22;13201;51.148;13.738;2024-01-25T09:47:09;8.20;99.90
25250;DHT22;13201;51.148;13.738;2024-01-25T09:49:35;8.20;99.90
25250;DHT22;13201;51.148;13.738;2024-01-25T09:52:05;8.20;99.90
25250;DHT22;13201;51.148;13.738;2024-01-25T09:54:34;8.20;99.90
25250;DHT22;13201;51.148;13.738;2024-01-25T09:57:07;8.20;99.90
25250;DHT22;13201;51.148;13.738;2024-01-25T09:59:36;8.30;99.90
25250;DHT22;13201;51.148;13.738;2024-01-25T10:02:02;8.20;99.90
25250;DHT22;13201;51.148;13.738;2024-01-25T10:04:29;8.10;99.90
25250;DHT22;13201;51.148;13.738;2024-01-25T10:06:58;8.20;99.90
25250;DHT22;13201;51.148;13.738;2024-01-25T10:09:24;8.10;99.90
25250;DHT22;13201;51.148;13.738;2024-01-25T10:11:49;8.10;99.90
25250;DHT22;13201;51.148;13.738;2024-01-25T10:14:15;8.20;99.90
25250;DHT22;13201;51.148;13.738;2024-01-25T10:16:41;8.30;99.90
25250;DHT22;13201;51.148;13.738;2024-01-25T10:19:07;8.30;99.90
25250;DHT22;13201;51.148;13.738;2024-01-25T10:21:35;8.20;99.90
25250;DHT22;13201;51.148;13.738;2024-01-25T10:24:01;8.20;99.90
25250;DHT22;13201;51.148;13.738;2024-01-25T10:26:28;8.30;99.90
25250;DHT22;13201;51.148;13.738;2024-01-25T10:28:54;8.30;99.90
25250;DHT22;13201;51.148;13.738;2024-01-25T10:31:23;8.20;99.90
25250;DHT22;13201;51.148;13.738;2024-01-25T10:33:48;8.30;99.90
25250;DHT22;13201;51.148;13.738;2024-01-25T10:36:16;8.20;99.90
25250;DHT22;13201;51.148;13.738;2024-01-25T10:38:42;8.20;99.90
25250;DHT22;13201;51.148;13.738;2024-01-25T10:41:10;8.20;99.90
25250;DHT22;13201;51.148;13.738;2024-01-25T10:43:36;8.30;99.90
25250;DHT22;13201;51.148;13.738;2024-01-25T10:46:02;8.30;99.90
25250;DHT22;13201;51.148;13.738;2024-01-25T10:48:28;8.40;99.90
25250;DHT22;13201;51.148;13.738;2024-01-25T10:50:55;8.30;99.90
25250;DHT22;13201;51.148;13.738;2024-01-25T10:53:23;8.30;99.90
25250;DHT22;13201;51.148;13.738;2024-01-25T10:55:50;8.30;99.90
25250;DHT22;13201;51.148;13.738;2024-01-25T10:58:16;8.30;99.90
25250;DHT22;13201;51.148;13.738;2024-01-25T11:00:52;8.20;99.90
25250;DHT22;13201;51.148;13.738;2024-01-25T11:03:28;8.20;99.90
25250;DHT22;13201;51.148;13.738;2024-01-25T11:06:10;8.20;99.90
25250;DHT22;13201;51.148;13.738;2024-01-25T11:08:36;8.30;99.90
25250;DHT22;13201;51.148;13.738;2024-01-25T11:11:11;8.30;99.90
25250;DHT22;13201;51.148;13.738;2024-01-25T11:13:44;8.40;99.90
25250;DHT22;13201;51.148;13.738;2024-01-25T11:16:24;8.50;99.90
25250;DHT22;13201;51.148;13.738;2024-01-25T11:18:54;8.60;99.90
25250;DHT22;13201;51.148;13.738;2024-01-25T11:21:37;8.70;99.90
25250;DHT22;13201;51.148;13.738;2024-01-25T11:24:04;8.80;99.90
25250;DHT22;13201;51.148;13.738;2024-01-25T11:26:32;8.60;99.90
25250;DHT22;13201;51.148;13.738;2024-01-25T11:28:58;8.60;99.90
25250;DHT22;13201;51.148;13.738;2024-01-25T11:31:27;8.50;99.90
25250;DHT22;13201;51.148;13.738;2024-01-25T11:33:57;8.50;99.90
25250;DHT22;13201;51.148;13.738;2024-01-25T11:36:22;8.40;99.90
25250;DHT22;13201;51.148;13.738;2024-01-25T11:38:48;8.50;99.90
25250;DHT22;13201;51.148;13.738;2024-01-25T11:41:14;8.40;99.90
25250;DHT22;13201;51.148;13.738;2024-01-25T11:43:40;8.50;99.90
25250;DHT22;13201;51.148;13.738;2024-01-25T11:46:06;8.50;99.90
25250;DHT22;13201;51.148;13.738;2024-01-25T11:48:32;8.50;99.90
25250;DHT22;13201;51.148;13.738;2024-01-25T11:51:01;8.40;99.90
25250;DHT22;13201;51.148;13.738;2024-01-25T11:53:27;8.30;99.90
25250;DHT22;13201;51.148;13.738;2024-01-25T11:55:55;8.30;99.90
25250;DHT22;13201;51.148;13.738;2024-01-25T11:58:22;8.20;99.90
25250;DHT22;13201;51.148;13.738;2024-01-25T12:00:48;8.20;99.90
25250;DHT22;13201;51.148;13.738;2024-01-25T12:03:14;8.20;99.90
25250;DHT22;13201;51.148;13.738;2024-01-25T12:05:41;8.30;99.90
25250;DHT22;13201;51.148;13.738;2024-01-25T12:08:13;8.30;99.90
25250;DHT22;13201;51.148;13.738;2024-01-25T12:10:39;8.40;99.90
25250;DHT22;13201;51.148;13.738;2024-01-25T12:13:08;8.60;99.90
25250;DHT22;13201;51.148;13.738;2024-01-25T12:15:35;8.70;99.90
25250;DHT22;13201;51.148;13.738;2024-01-25T12:18:01;8.70;99.90
25250;DHT22;13201;51.148;13.738;2024-01-25T12:20:28;8.60;99.90
25250;DHT22;13201;51.148;13.738;2024-01-25T12:22:54;8.70;99.90
25250;DHT22;13201;51.148;13.738;2024-01-25T12:25:23;8.70;99.90
25250;DHT22;13201;51.148;13.738;2024-01-25T12:27:49;8.70;99.90
25250;DHT22;13201;51.148;13.738;2024-01-25T12:30:16;8.50;99.90
25250;DHT22;13201;51.148;13.738;2024-01-25T12:32:42;8.50;99.90
25250;DHT22;13201;51.148;13.738;2024-01-25T12:35:08;8.50;99.90
25250;DHT22;13201;51.148;13.738;2024-01-25T12:37:34;8.60;99.90
25250;DHT22;13201;51.148;13.738;2024-01-25T12:40:00;8.60;99.90
25250;DHT22;13201;51.148;13.738;2024-01-25T12:42:26;8.80;99.90
25250;DHT22;13201;51.148;13.738;2024-01-25T12:44:53;8.70;99.90
25250;DHT22;13201;51.148;13.738;2024-01-25T12:47:22;8.70;99.90
25250;DHT22;13201;51.148;13.738;2024-01-25T12:49:47;8.60;99.90
25250;DHT22;13201;51.148;13.738;2024-01-25T12:52:14;8.60;99.90
25250;DHT22;13201;51.148;13.738;2024-01-25T12:54:41;8.50;99.90
25250;DHT22;13201;51.148;13.738;2024-01-25T12:57:07;8.50;99.90
25250;DHT22;13201;51.148;13.738;2024-01-25T12:59:33;8.40;99.90
25250;DHT22;13201;51.148;13.738;2024-01-25T13:01:59;8.50;99.90
25250;DHT22;13201;51.148;13.738;2024-01-25T13:04:25;8.40;99.90
25250;DHT22;13201;51.148;13.738;2024-01-25T13:06:54;8.40;99.90
25250;DHT22;13201;51.148;13.738;2024-01-25T13:09:21;8.40;99.90
25250;DHT22;13201;51.148;13.738;2024-01-25T13:11:47;8.50;99.90
25250;DHT22;13201;51.148;13.738;2024-01-25T13:14:13;8.40;99.90
25250;DHT22;13201;51.148;13.738;2024-01-25T13:16:39;8.40;99.90
25250;DHT22;13201;51.148;13.738;2024-01-25T13:19:05;8.40;99.90
25250;DHT22;13201;51.148;13.738;2024-01-25T13:21:34;8.30;99.90
25250;DHT22;13201;51.148;13.738;2024-01-25T13:24:00;8.30;99.90
25250;DHT22;13201;51.148;13.738;2024-01-25T13:26:26;8.40;99.90
25250;DHT22;13201;51.148;13.738;2024-01-25T13:28:52;8.30;99.90
25250;DHT22;13201;51.148;13.738;2024-01-25T13:31:18;8.40;99.90
25250;DHT22;13201;51.148;13.738;2024-01-25T13:33:43;8.40;99.90
25250;DHT22;13201;51.148;13.738;2024-01-25T13:36:11;8.40;99.90
25250;DHT22;13201;51.148;13.738;2024-01-25T13:38:39;8.40;99.90
25250;DHT22;13201;51.148;13.738;2024-01-25T13:41:05;8.40;99.90
25250;DHT22;13201;51.148;13.738;2024-01-25T13:43:30;8.50;99.90
25250;DHT22;13201;51.148;13.738;2024-01-25T13:45:56;8.50;99.90
25250;DHT22;13201;51.148;13.738;2024-01-25T13:48:22;8.40;99.90
25250;DHT22;13201;51.148;13.738;2024-01-25T13:50:47;8.40;99.90
25250;DHT22;13201;51.148;13.738;2024-01-25T13:53:13;8.30;99.90
25250;DHT22;13201;51.148;13.738;2024-01-25T13:55:39;8.40;99.90
25250;DHT22;13201;51.148;13.738;2024-01-25T13:58:05;8.50;99.90
25250;DHT22;13201;51.148;13.738;2024-01-25T14:00:30;8.60;99.90
25250;DHT22;13201;51.148;13.738;2024-01-25T14:02:56;8.40;99.90
25250;DHT22;13201;51.148;13.738;2024-01-25T14:05:22;8.50;99.90
25250;DHT22;13201;51.148;13.738;2024-01-25T14:07:47;8.60;99.90
25250;DHT22;13201;51.148;13.738;2024-01-25T14:10:13;8.40;99.90
25250;DHT22;13201;51.148;13.738;2024-01-25T14:12:39;8.50;99.90
25250;DHT22;13201;51.148;13.738;2024-01-25T14:15:05;8.60;99.90
25250;DHT22;13201;51.148;13.738;2024-01-25T14:17:30;8.50;99.90
25250;DHT22;13201;51.148;13.738;2024-01-25T14:19:56;8.40;99.90
25250;DHT22;13201;51.148;13.738;2024-01-25T14:22:22;8.20;99.90
25250;DHT22;13201;51.148;13.738;2024-01-25T14:24:47;8.30;99.90
25250;DHT22;13201;51.148;13.738;2024-01-25T14:27:13;8.20;99.90
25250;DHT22;13201;51.148;13.738;2024-01-25T14:29:39;8.10;99.90
25250;DHT22;13201;51.148;13.738;2024-01-25T14:32:05;8.20;99.90
25250;DHT22;13201;51.148;13.738;2024-01-25T14:34:30;8.30;99.90
25250;DHT22;13201;51.148;13.738;2024-01-25T14:36:56;8.40;99.90
25250;DHT22;13201;51.148;13.738;2024-01-25T14:39:22;8.30;99.90
25250;DHT22;13201;51.148;13.738;2024-01-25T14:41:47;8.10;99.90
25250;DHT22;13201;51.148;13.738;2024-01-25T14:44:13;8.10;99.90
25250;DHT22;13201;51.148;13.738;2024-01-25T14:46:39;8.20;99.90
25250;DHT22;13201;51.148;13.738;2024-01-25T14:49:05;8.20;99.90
25250;DHT22;13201;51.148;13.738;2024-01-25T14:51:30;8.20;99.90
25250;DHT22;13201;51.148;13.738;2024-01-25T14:53:56;8.10;99.90
25250;DHT22;13201;51.148;13.738;2024-01-25T14:56:22;8.10;99.90
25250;DHT22;13201;51.148;13.738;2024-01-25T14:58:48;8.00;99.90
25250;DHT22;13201;51.148;13.738;2024-01-25T15:01:15;7.90;99.90
25250;DHT22;13201;51.148;13.738;2024-01-25T15:03:44;8.00;99.90
25250;DHT22;13201;51.148;13.738;2024-01-25T15:06:11;8.00;99.90
25250;DHT22;13201;51.148;13.738;2024-01-25T15:08:37;8.00;99.90
25250;DHT22;13201;51.148;13.738;2024-01-25T15:11:03;7.90;99.90
25250;DHT22;13201;51.148;13.738;2024-01-25T15:13:29;7.90;99.90
25250;DHT22;13201;51.148;13.738;2024-01-25T15:15:54;7.80;99.90
25250;DHT22;13201;51.148;13.738;2024-01-25T15:18:20;7.80;99.90
25250;DHT22;13201;51.148;13.738;2024-01-25T15:20:47;7.80;99.90
25250;DHT22;13201;51.148;13.738;2024-01-25T15:23:13;7.70;99.90
25250;DHT22;13201;51.148;13.738;2024-01-25T15:25:38;7.70;99.90
25250;DHT22;13201;51.148;13.738;2024-01-25T15:28:04;7.70;99.90
25250;DHT22;13201;51.148;13.738;2024-01-25T15:30:30;7.80;99.90
25250;DHT22;13201;51.148;13.738;2024-01-25T15:32:56;7.90;99.90
25250;DHT22;13201;51.148;13.738;2024-01-25T15:35:22;7.90;99.90
25250;DHT22;13201;51.148;13.738;2024-01-25T15:37:48;7.80;99.90
25250;DHT22;13201;51.148;13.738;2024-01-25T15:40:13;7.80;99.90
25250;DHT22;13201;51.148;13.738;2024-01-25T15:42:42;7.80;99.90
25250;DHT22;13201;51.148;13.738;2024-01-25T15:45:09;7.80;99.90
25250;DHT22;13201;51.148;13.738;2024-01-25T15:47:35;7.70;99.90